Time;durP1;ratioP1;P1;durP2;ratioP2;P2;SDS_P1;SDS_P2;PMS_P1;PMS_P2;Temp;Humidity;BMP_temperature;BMP_pressure;BME280_temperature;BME280_humidity;BME280_pressure;Samples;Min_cycle;Max_cycle;Signal;HPM_P1;HPM_P2
2023/10/04 00:04:56;;;;;;;3.40;1.63;;;;;;;10.19;66.68;100936.75;10481394;28;20196;-60
2023/10/04 00:10:04;;;;;;;6.80;1.70;;;;;;;10.23;66.92;100943.53;10476173;28;20048;-60
2023/10/04 00:15:09;;;;;;;3.50;1.40;;;;;;;10.40;66.82;100948.88;10478233;28;20239;-59
2023/10/04 00:20:14;;;;;;;2.85;1.30;;;;;;;10.45;66.74;100954.78;10473472;28;20052;-60
2023/10/04 00:25:20;;;;;;;3.38;1.35;;;;;;;10.50;66.78;100960.66;10461767;28;20397;-60
2023/10/04 00:30:34;;;;;;;2.88;1.30;;;;;;;10.59;66.74;100954.19;10471767;28;20040;-60
2023/10/04 00:35:40;;;;;;;3.17;1.42;;;;;;;10.74;66.60;100957.91;10469310;28;20032;-60
2023/10/04 00:40:43;;;;;;;2.38;1.20;;;;;;;10.89;66.38;100958.06;10457168;28;20333;-60
2023/10/04 00:45:49;;;;;;;2.33;1.20;;;;;;;11.00;66.23;100963.69;10457020;28;20190;-59
2023/10/04 00:50:52;;;;;;;3.13;1.20;;;;;;;11.03;65.90;100966.13;10485371;28;20501;-60
2023/10/04 00:55:56;;;;;;;3.80;1.30;;;;;;;11.06;65.77;100976.50;10449119;28;20063;-59
2023/10/04 01:00:59;;;;;;;5.80;1.38;;;;;;;11.10;65.83;100982.44;10475924;28;20040;-59
2023/10/04 01:06:02;;;;;;;2.95;1.40;;;;;;;11.13;65.79;100982.34;10469481;28;20071;-60
2023/10/04 01:11:07;;;;;;;3.25;1.40;;;;;;;11.14;65.45;100999.72;10477587;28;20132;-59
2023/10/04 01:16:09;;;;;;;2.67;1.20;;;;;;;11.10;65.36;101003.41;10472574;28;20043;-59
2023/10/04 01:21:11;;;;;;;4.40;1.50;;;;;;;11.06;65.36;101012.31;10459910;28;20054;-59
2023/10/04 01:26:25;;;;;;;4.20;1.15;;;;;;;10.93;65.42;101014.56;10475607;28;20071;-59
2023/10/04 01:31:28;;;;;;;4.10;1.15;;;;;;;10.83;65.64;101021.13;10474863;28;20076;-59
2023/10/04 01:36:32;;;;;;;5.40;1.48;;;;;;;10.79;65.71;101024.81;10466748;28;20200;-60
2023/10/04 01:41:38;;;;;;;2.47;1.00;;;;;;;10.78;65.75;101025.72;10472556;28;20061;-60
2023/10/04 01:46:42;;;;;;;2.17;0.90;;;;;;;10.79;65.79;101009.09;10471860;28;20046;-60
2023/10/04 01:51:44;;;;;;;2.38;1.23;;;;;;;10.80;65.79;101015.19;10479358;28;20155;-59
2023/10/04 01:56:49;;;;;;;2.83;1.10;;;;;;;10.88;65.64;101019.19;10453300;28;20055;-60
2023/10/04 02:01:51;;;;;;;3.95;1.60;;;;;;;10.86;65.69;101026.25;10470974;28;20080;-60
2023/10/04 02:06:53;;;;;;;2.65;1.00;;;;;;;10.89;65.50;101017.44;10478905;28;20052;-59
2023/10/04 02:11:55;;;;;;;3.50;1.50;;;;;;;10.93;65.38;101021.59;10485789;28;20048;-59
2023/10/04 02:16:57;;;;;;;2.83;1.00;;;;;;;10.96;65.39;101005.75;10465879;28;20791;-60
2023/10/04 02:22:00;;;;;;;2.10;1.20;;;;;;;10.97;65.41;101005.69;10497581;28;20059;-59
2023/10/04 02:27:02;;;;;;;4.35;1.05;;;;;;;10.96;65.29;101001.38;10500129;28;20123;-59
2023/10/04 02:32:11;;;;;;;6.38;1.35;;;;;;;10.96;65.40;101001.38;10464479;28;20459;-60
2023/10/04 02:37:15;;;;;;;6.70;1.30;;;;;;;11.00;65.34;101013.41;10476225;28;20397;-60
2023/10/04 02:42:21;;;;;;;2.00;1.15;;;;;;;11.03;65.28;101013.25;10460010;28;20044;-59
2023/10/04 02:47:26;;;;;;;3.65;1.15;;;;;;;11.02;65.14;101013.34;10479335;28;20044;-60
2023/10/04 02:52:28;;;;;;;1.60;1.02;;;;;;;10.98;65.17;101020.47;10480898;28;20215;-60
2023/10/04 02:57:30;;;;;;;2.90;1.13;;;;;;;10.96;65.33;101021.44;10458575;28;20062;-59
2023/10/04 03:02:33;;;;;;;4.22;1.58;;;;;;;10.94;65.28;101013.69;10451773;28;20047;-60
2023/10/04 03:07:37;;;;;;;4.57;1.10;;;;;;;10.90;65.31;101008.63;10466076;28;20052;-59
2023/10/04 03:12:41;;;;;;;4.00;1.48;;;;;;;10.83;65.40;101000.19;10448089;28;20044;-59
2023/10/04 03:17:44;;;;;;;4.13;1.40;;;;;;;10.84;65.51;100998.44;10447428;28;20044;-60
2023/10/04 03:22:48;;;;;;;1.55;0.98;;;;;;;10.79;65.64;100992.53;10458062;28;20056;-60
2023/10/04 03:27:52;;;;;;;2.35;1.10;;;;;;;10.83;65.80;100999.34;10475290;28;20048;-59
2023/10/04 03:32:56;;;;;;;3.30;1.30;;;;;;;10.76;66.10;100998.78;10457095;28;20452;-59
2023/10/04 03:38:04;;;;;;;3.03;1.20;;;;;;;10.84;65.91;101004.53;10455354;28;20286;-60
2023/10/04 03:43:12;;;;;;;3.38;1.08;;;;;;;10.86;65.79;101004.47;10453121;28;20485;-60
2023/10/04 03:48:17;;;;;;;2.85;1.48;;;;;;;10.82;65.86;101005.50;10453261;28;20056;-60
2023/10/04 03:53:24;;;;;;;2.13;0.98;;;;;;;10.80;66.00;101004.72;10458102;28;20404;-60
2023/10/04 03:58:28;;;;;;;4.50;1.30;;;;;;;10.74;66.11;100992.78;10454035;28;20052;-60
2023/10/04 04:03:30;;;;;;;2.55;0.90;;;;;;;10.78;65.95;100986.47;10480517;28;20051;-60
2023/10/04 04:08:33;;;;;;;3.20;1.30;;;;;;;10.83;65.98;100988.88;10479528;28;20135;-60
2023/10/04 04:13:35;;;;;;;3.35;1.63;;;;;;;10.89;65.77;100986.03;10456610;28;20044;-60
2023/10/04 04:18:40;;;;;;;4.55;1.40;;;;;;;10.97;65.76;100984.72;10480296;28;20048;-60
2023/10/04 04:23:43;;;;;;;1.95;1.23;;;;;;;10.98;65.64;100973.38;10456135;28;20505;-60
2023/10/04 04:28:47;;;;;;;2.00;1.13;;;;;;;11.04;65.57;100974.88;10477222;28;20094;-60
2023/10/04 04:33:50;;;;;;;1.23;1.00;;;;;;;11.06;65.76;100975.66;10455798;28;20067;-60
2023/10/04 04:38:55;;;;;;;2.85;1.30;;;;;;;11.08;65.44;100987.75;10446087;28;20048;-60
2023/10/04 04:44:07;;;;;;;1.98;1.10;;;;;;;11.15;65.33;100989.16;10429324;28;20049;-60
2023/10/04 04:49:10;;;;;;;2.28;1.08;;;;;;;11.08;65.55;100979.91;10375547;28;20045;-60
2023/10/04 04:54:12;;;;;;;4.07;0.95;;;;;;;11.06;65.51;100978.28;10382630;28;20040;-60
2023/10/04 04:59:16;;;;;;;2.53;1.13;;;;;;;10.98;65.71;100983.84;10411937;28;20050;-60
2023/10/04 05:04:19;;;;;;;3.13;1.20;;;;;;;10.97;65.74;100992.59;10392372;28;20493;-60
2023/10/04 05:09:21;;;;;;;3.05;1.13;;;;;;;10.90;65.87;100998.16;10388806;28;20038;-60
2023/10/04 05:14:24;;;;;;;4.63;1.50;;;;;;;10.90;66.02;100998.16;10391979;28;20045;-60
2023/10/04 05:19:26;;;;;;;2.33;1.17;;;;;;;11.01;65.72;101011.66;10395738;28;20069;-60
2023/10/04 05:24:29;;;;;;;3.13;1.45;;;;;;;11.03;65.52;101002.78;10401068;28;20053;-60
2023/10/04 05:29:32;;;;;;;2.78;1.00;;;;;;;11.06;65.52;101009.69;10388992;28;20545;-60
2023/10/04 05:34:34;;;;;;;4.82;1.45;;;;;;;11.01;65.55;101024.72;10383799;28;20055;-60
2023/10/04 05:39:36;;;;;;;2.47;1.10;;;;;;;10.91;65.68;101026.06;10383937;28;20060;-60
2023/10/04 05:44:38;;;;;;;3.88;1.83;;;;;;;10.76;65.88;101030.19;10457389;28;20315;-60
2023/10/04 05:49:40;;;;;;;3.70;1.15;;;;;;;10.58;65.83;101030.97;10465615;28;20037;-60
2023/10/04 05:54:42;;;;;;;4.30;1.63;;;;;;;10.39;65.89;101024.81;10463236;28;20116;-60
2023/10/04 05:59:44;;;;;;;3.58;1.80;;;;;;;10.06;65.97;101028.78;10450468;28;20048;-60
2023/10/04 06:04:47;;;;;;;3.33;1.50;;;;;;;9.96;66.17;101036.16;10467284;28;20062;-60
2023/10/04 06:09:50;;;;;;;4.05;1.20;;;;;;;9.95;66.17;101051.91;10467579;28;20044;-60
2023/10/04 06:14:52;;;;;;;2.20;1.20;;;;;;;10.14;66.18;101042.41;10467682;28;20098;-60
2023/10/04 06:19:55;;;;;;;6.43;1.30;;;;;;;10.27;66.00;101061.91;10470603;28;20083;-60
2023/10/04 06:24:58;;;;;;;2.67;1.67;;;;;;;10.38;65.97;101057.09;10474052;28;20055;-60
2023/10/04 06:30:01;;;;;;;10.52;2.20;;;;;;;10.59;65.77;101058.81;10472046;28;20333;-60
2023/10/04 06:35:06;;;;;;;9.65;2.42;;;;;;;10.72;65.56;101048.69;10466158;28;20043;-60
2023/10/04 06:40:15;;;;;;;5.38;1.40;;;;;;;10.72;65.57;101054.78;10464925;28;20207;-60
2023/10/04 06:45:20;;;;;;;6.68;1.88;;;;;;;10.86;65.52;101085.59;10462116;28;20440;-60
2023/10/04 06:50:28;;;;;;;5.38;1.45;;;;;;;10.95;65.32;101083.41;10463446;28;20303;-60
2023/10/04 06:55:31;;;;;;;3.13;1.48;;;;;;;11.11;65.27;101084.47;10469397;28;20592;-60
2023/10/04 07:00:36;;;;;;;6.35;1.30;;;;;;;11.22;65.19;101092.72;10474631;28;20041;-60
2023/10/04 07:05:40;;;;;;;4.32;1.80;;;;;;;11.32;65.39;101088.78;10469959;28;20523;-60
2023/10/04 07:10:44;;;;;;;3.25;1.27;;;;;;;11.45;65.22;101098.72;10474162;28;20041;-60
2023/10/04 07:15:47;;;;;;;3.65;1.40;;;;;;;11.55;65.44;101113.09;10451736;28;20090;-60
2023/10/04 07:20:49;;;;;;;4.55;1.40;;;;;;;11.72;65.21;101123.69;10465348;28;20052;-60
2023/10/04 07:25:51;;;;;;;2.70;1.83;;;;;;;11.87;64.99;101122.97;10472409;28;20059;-60
2023/10/04 07:30:54;;;;;;;2.70;1.02;;;;;;;12.02;64.73;101127.50;10468361;28;20277;-60
2023/10/04 07:35:56;;;;;;;3.85;1.33;;;;;;;12.38;64.24;101127.53;10449749;28;20523;-62
2023/10/04 07:40:59;;;;;;;3.28;1.17;;;;;;;12.70;63.67;101117.19;10450587;28;20114;-61
2023/10/04 07:46:01;;;;;;;6.28;2.03;;;;;;;12.90;63.33;101130.16;10467496;28;20045;-62
2023/10/04 07:51:03;;;;;;;4.00;1.95;;;;;;;13.33;62.94;101134.06;10467452;28;20139;-61
2023/10/04 07:56:05;;;;;;;4.13;1.60;;;;;;;13.55;61.84;101132.06;10444225;28;20198;-62
2023/10/04 08:01:07;;;;;;;5.97;1.63;;;;;;;13.80;61.32;101131.56;10459263;28;20048;-62
2023/10/04 08:06:12;;;;;;;2.17;1.23;;;;;;;13.91;60.62;101126.59;10457011;28;20047;-62
2023/10/04 08:11:15;;;;;;;2.95;1.38;;;;;;;14.24;60.21;101124.75;10447024;28;20056;-62
2023/10/04 08:16:17;;;;;;;2.28;1.17;;;;;;;14.60;59.97;101129.72;10460526;28;20638;-62
2023/10/04 08:21:19;;;;;;;3.97;1.15;;;;;;;14.67;58.97;101135.50;10457887;28;20052;-62
2023/10/04 08:26:25;;;;;;;3.05;1.20;;;;;;;14.99;59.17;101137.09;10459597;28;20161;-62
2023/10/04 08:31:31;;;;;;;2.97;1.55;;;;;;;15.18;58.17;101135.06;10482920;28;20280;-62
2023/10/04 08:36:35;;;;;;;2.47;1.25;;;;;;;15.46;57.71;101134.25;10466461;28;20122;-62
2023/10/04 08:41:37;;;;;;;2.88;1.35;;;;;;;15.58;57.56;101136.16;10451008;28;20052;-62
2023/10/04 08:46:43;;;;;;;4.32;1.63;;;;;;;15.94;56.27;101134.72;10439997;28;20435;-62
2023/10/04 08:51:54;;;;;;;4.20;1.50;;;;;;;15.87;56.29;101125.53;10454144;28;20177;-61
2023/10/04 08:57:05;;;;;;;3.83;1.10;;;;;;;16.26;54.82;101118.63;10478025;28;20417;-62
2023/10/04 09:02:13;;;;;;;3.78;1.52;;;;;;;16.53;54.68;101125.63;10465942;28;20126;-62
2023/10/04 09:07:18;;;;;;;2.97;1.30;;;;;;;16.75;54.89;101130.38;10463767;28;20071;-62
2023/10/04 09:12:19;;;;;;;5.40;1.52;;;;;;;16.97;54.22;101118.28;10466102;28;20301;-62
2023/10/04 09:17:25;;;;;;;3.60;1.40;;;;;;;17.06;54.04;101116.78;10461698;28;20122;-62
2023/10/04 09:22:31;;;;;;;3.85;1.80;;;;;;;17.15;51.83;101115.31;10448640;28;20045;-62
2023/10/04 09:27:33;;;;;;;2.97;1.30;;;;;;;17.13;53.43;101115.41;10469210;28;20559;-62
2023/10/04 09:32:38;;;;;;;4.28;1.50;;;;;;;17.42;52.61;101106.38;10440243;28;20424;-62
2023/10/04 09:37:44;;;;;;;6.18;1.80;;;;;;;17.76;52.11;101099.53;10473542;28;20043;-62
2023/10/04 09:42:55;;;;;;;3.72;1.63;;;;;;;17.88;51.44;101103.09;10462475;28;20068;-62
2023/10/04 09:48:03;;;;;;;4.57;1.83;;;;;;;18.05;51.14;101108.03;10459704;28;20099;-62
2023/10/04 09:53:07;;;;;;;4.28;1.50;;;;;;;18.23;50.78;101104.94;10443253;28;20044;-62
2023/10/04 09:58:13;;;;;;;4.70;1.60;;;;;;;18.19;50.18;101110.53;10461911;28;20085;-62
2023/10/04 10:03:19;;;;;;;3.95;1.40;;;;;;;18.18;49.28;101101.75;10465884;28;20041;-62
2023/10/04 10:08:25;;;;;;;4.30;1.63;;;;;;;18.33;49.94;101105.09;10460997;28;20166;-62
2023/10/04 10:13:29;;;;;;;3.42;1.45;;;;;;;18.50;49.63;101097.59;10465175;28;20047;-62
2023/10/04 10:18:32;;;;;;;3.90;1.58;;;;;;;18.59;48.82;101101.38;10461894;28;20349;-62
2023/10/04 10:23:55;;;;;;;4.28;1.55;;;;;;;18.62;45.22;101101.16;10459822;28;20370;-62
2023/10/04 10:29:05;;;;;;;5.00;1.83;;;;;;;18.92;47.85;101087.38;10465253;28;20160;-62
2023/10/04 10:34:08;;;;;;;3.17;1.30;;;;;;;18.85;47.84;101083.53;10465344;28;20322;-62
2023/10/04 10:39:20;;;;;;;4.70;1.80;;;;;;;18.79;46.39;101087.47;10464043;28;20548;-62
2023/10/04 10:44:24;;;;;;;3.35;1.33;;;;;;;18.50;48.24;101080.88;10461120;28;20052;-62
2023/10/04 10:49:52;;;;;;;5.95;1.52;;;;;;;18.42;47.30;101084.06;10458625;28;20052;-62
2023/10/04 10:54:56;;;;;;;5.53;1.63;;;;;;;18.34;48.07;101080.34;10459825;28;20044;-62
2023/10/04 11:00:18;;;;;;;6.90;1.90;;;;;;;18.22;47.70;101075.94;10455554;28;20040;-62
2023/10/04 11:05:22;;;;;;;3.00;1.65;;;;;;;18.24;47.78;101080.13;10453237;28;20182;-62
2023/10/04 11:10:25;;;;;;;6.78;1.83;;;;;;;18.34;47.62;101077.69;10445742;28;20045;-62
2023/10/04 11:15:28;;;;;;;4.65;1.90;;;;;;;18.54;47.38;101074.41;10455284;28;20444;-62
2023/10/04 11:20:32;;;;;;;4.18;1.48;;;;;;;18.77;46.68;101078.78;10424901;28;20560;-62
2023/10/04 11:25:36;;;;;;;4.82;1.42;;;;;;;18.81;46.09;101064.34;10474395;28;20044;-62
2023/10/04 11:30:38;;;;;;;6.82;1.70;;;;;;;19.01;45.87;101052.22;10461264;28;20513;-62
2023/10/04 11:35:45;;;;;;;4.85;1.50;;;;;;;19.09;45.07;101053.38;10460596;28;20472;-62
2023/10/04 11:40:51;;;;;;;3.05;1.30;;;;;;;18.98;45.64;101040.06;10462015;28;20056;-62
2023/10/04 11:45:59;;;;;;;3.75;1.33;;;;;;;18.91;44.04;101041.47;10464916;28;20100;-62
2023/10/04 11:51:04;;;;;;;3.33;1.42;;;;;;;18.81;45.36;101032.53;10467101;28;20048;-62
2023/10/04 11:56:09;;;;;;;4.72;1.63;;;;;;;19.19;44.95;101014.56;10448594;28;20819;-62
2023/10/04 12:01:18;;;;;;;7.60;2.25;;;;;;;19.38;44.10;101011.28;10466832;28;20184;-62
2023/10/04 12:06:30;;;;;;;4.93;1.88;;;;;;;19.58;42.76;101012.34;10461330;28;20040;-62
2023/10/04 12:11:36;;;;;;;4.85;1.73;;;;;;;19.61;43.86;101010.28;10473471;28;20119;-62
2023/10/04 12:16:38;;;;;;;4.22;1.90;;;;;;;19.54;44.23;101006.47;10469986;28;20060;-62
2023/10/04 12:21:41;;;;;;;6.07;2.10;;;;;;;19.22;44.30;101009.00;10468329;28;20097;-62
2023/10/04 12:26:43;;;;;;;3.97;1.77;;;;;;;18.92;45.58;101008.72;10460919;28;20048;-63
2023/10/04 12:31:46;;;;;;;6.93;1.95;;;;;;;19.13;45.78;101009.75;10464209;28;20042;-62
2023/10/04 12:36:48;;;;;;;5.15;1.55;;;;;;;19.20;45.26;101018.88;10462316;28;20265;-63
2023/10/04 12:41:59;;;;;;;4.35;1.60;;;;;;;19.22;45.51;101019.59;10467264;28;20070;-62
2023/10/04 12:47:02;;;;;;;5.97;1.60;;;;;;;19.00;45.33;101022.22;10444864;28;20413;-62
2023/10/04 12:52:04;;;;;;;4.55;1.42;;;;;;;19.23;45.37;101013.34;10464615;28;20674;-62
2023/10/04 12:57:07;;;;;;;5.28;1.70;;;;;;;19.42;45.57;101008.25;10459584;28;20173;-62
2023/10/04 13:02:09;;;;;;;5.80;1.98;;;;;;;19.55;44.54;100997.53;10484721;28;20050;-62
2023/10/04 13:07:12;;;;;;;5.38;2.13;;;;;;;19.31;45.13;100984.41;10459607;28;20052;-62
2023/10/04 13:12:14;;;;;;;4.85;2.03;;;;;;;19.38;45.11;100990.91;10460593;28;20484;-62
2023/10/04 13:17:16;;;;;;;4.18;2.00;;;;;;;19.10;44.75;101004.66;10458904;28;20049;-62
2023/10/04 13:22:18;;;;;;;5.53;2.20;;;;;;;19.24;44.97;100992.94;10463204;28;20047;-62
2023/10/04 13:27:20;;;;;;;5.90;2.05;;;;;;;19.38;44.58;100979.44;10441450;28;20234;-62
2023/10/04 13:32:23;;;;;;;6.30;2.40;;;;;;;19.20;44.83;100987.06;10463583;28;20044;-62
2023/10/04 13:37:25;;;;;;;6.40;2.47;;;;;;;19.16;44.98;100980.31;10462186;28;20090;-62
2023/10/04 13:42:28;;;;;;;5.28;2.03;;;;;;;19.20;44.85;100984.41;10468043;28;20052;-62
2023/10/04 13:47:31;;;;;;;5.22;2.03;;;;;;;19.43;44.86;100983.44;10465772;28;20205;-62
2023/10/04 13:52:33;;;;;;;4.88;2.20;;;;;;;19.52;44.06;100986.31;10463443;28;20044;-62
2023/10/04 13:57:38;;;;;;;9.75;2.65;;;;;;;19.70;44.43;100966.25;10461226;28;20072;-62
2023/10/04 14:02:40;;;;;;;7.40;2.28;;;;;;;19.56;43.41;100959.41;10463770;28;20046;-62
2023/10/04 14:07:44;;;;;;;5.63;3.03;;;;;;;19.41;43.67;100931.47;10465386;28;20416;-62
2023/10/04 14:12:46;;;;;;;4.78;2.13;;;;;;;19.39;43.52;100925.44;10465134;28;21258;-62
2023/10/04 14:17:49;;;;;;;5.90;2.35;;;;;;;19.32;44.00;100921.56;10466923;28;20029;-62
2023/10/04 14:22:53;;;;;;;6.47;2.33;;;;;;;19.21;44.33;100940.19;10459802;28;20129;-62
2023/10/04 14:27:55;;;;;;;7.05;2.42;;;;;;;19.09;45.09;100952.59;10460328;28;20055;-62
2023/10/04 14:32:57;;;;;;;6.28;2.25;;;;;;;18.83;45.01;100944.97;10465598;28;20076;-62
2023/10/04 14:38:00;;;;;;;6.78;2.25;;;;;;;18.72;45.20;100953.75;10476310;28;20036;-62
2023/10/04 14:43:02;;;;;;;7.03;1.90;;;;;;;18.62;45.65;100952.78;10456961;28;20181;-62
2023/10/04 14:48:06;;;;;;;5.30;2.33;;;;;;;18.52;45.80;100947.31;10459869;28;20121;-62
2023/10/04 14:53:08;;;;;;;6.25;2.35;;;;;;;18.30;46.07;100949.91;10464925;28;20052;-62
2023/10/04 14:58:10;;;;;;;6.65;2.80;;;;;;;18.13;46.53;100954.78;10459283;28;20139;-62
2023/10/04 15:03:12;;;;;;;7.05;1.92;;;;;;;18.17;46.66;100946.50;10451749;28;20066;-62
2023/10/04 15:08:18;;;;;;;6.03;2.30;;;;;;;18.16;46.77;100936.00;10438763;28;20053;-62
2023/10/04 15:13:20;;;;;;;5.85;2.17;;;;;;;18.31;46.36;100921.63;10465474;28;20045;-62
2023/10/04 15:18:22;;;;;;;7.22;1.98;;;;;;;18.25;47.03;100933.56;10464980;28;20039;-62
2023/10/04 15:23:24;;;;;;;5.38;1.88;;;;;;;18.20;46.95;100940.16;10473753;28;20057;-62
2023/10/04 15:28:27;;;;;;;7.28;2.67;;;;;;;17.95;47.11;100934.97;10452383;28;20233;-62
2023/10/04 15:33:29;;;;;;;7.22;2.03;;;;;;;17.95;47.86;100919.09;10472303;28;20075;-62
2023/10/04 15:38:31;;;;;;;5.18;2.20;;;;;;;17.88;48.12;100916.06;10460799;28;20048;-62
2023/10/04 15:43:36;;;;;;;7.10;2.42;;;;;;;17.82;48.55;100921.81;10452212;28;20060;-62
2023/10/04 15:48:38;;;;;;;6.57;2.10;;;;;;;17.62;49.21;100917.13;10448494;28;20048;-62
2023/10/04 15:53:42;;;;;;;6.47;2.38;;;;;;;17.31;49.58;100910.56;10467975;28;20527;-62
2023/10/04 15:58:44;;;;;;;7.72;1.90;;;;;;;17.19;50.22;100907.94;10443671;28;20196;-62
2023/10/04 16:03:47;;;;;;;5.72;1.95;;;;;;;17.13;50.16;100916.31;10490556;28;20136;-61
2023/10/04 16:08:50;;;;;;;6.72;2.03;;;;;;;17.05;50.71;100916.88;10464499;28;20508;-62
2023/10/04 16:13:53;;;;;;;8.57;1.77;;;;;;;16.94;51.28;100911.47;10469266;28;20040;-62
2023/10/04 16:18:55;;;;;;;6.03;1.90;;;;;;;16.84;51.88;100910.44;10479467;28;20040;-62
2023/10/04 16:23:57;;;;;;;8.40;3.05;;;;;;;16.69;52.33;100911.53;10470424;28;20053;-62
2023/10/04 16:29:00;;;;;;;6.30;2.45;;;;;;;16.60;52.86;100910.38;10455755;28;20492;-62
2023/10/04 16:34:02;;;;;;;5.78;2.13;;;;;;;16.48;53.18;100921.78;10466700;28;20215;-62
2023/10/04 16:39:07;;;;;;;6.00;2.47;;;;;;;16.39;53.24;100911.81;10465258;28;20040;-62
2023/10/04 16:44:09;;;;;;;5.53;1.73;;;;;;;16.34;53.36;100929.75;10471193;28;20138;-62
2023/10/04 16:49:12;;;;;;;6.00;2.13;;;;;;;16.29;53.57;100923.09;10464353;28;20174;-62
2023/10/04 16:54:14;;;;;;;7.05;2.25;;;;;;;16.14;54.04;100922.34;10467079;28;20047;-62
2023/10/04 16:59:17;;;;;;;5.95;3.00;;;;;;;16.04;54.25;100935.28;10466476;28;20050;-62
2023/10/04 17:04:19;;;;;;;7.78;2.65;;;;;;;15.95;54.63;100927.16;10463651;28;20715;-62
2023/10/04 17:09:21;;;;;;;6.50;2.00;;;;;;;15.80;54.98;100934.28;10465651;28;20292;-62
2023/10/04 17:14:26;;;;;;;8.30;1.90;;;;;;;15.65;55.29;100943.19;10461022;28;20508;-62
2023/10/04 17:19:28;;;;;;;7.43;2.13;;;;;;;15.50;55.77;100941.53;10443390;28;20040;-62
2023/10/04 17:24:30;;;;;;;5.20;2.28;;;;;;;15.26;56.17;100943.06;10463498;28;20040;-61
2023/10/04 17:29:33;;;;;;;5.72;2.13;;;;;;;15.11;56.51;100946.66;10459719;28;20532;-62
2023/10/04 17:34:35;;;;;;;3.42;1.63;;;;;;;15.01;56.76;100945.53;10463753;28;20084;-60
2023/10/04 17:39:37;;;;;;;5.30;1.67;;;;;;;14.88;57.06;100941.97;10462428;28;20045;-60
2023/10/04 17:44:41;;;;;;;6.78;2.15;;;;;;;14.70;57.52;100951.81;10463955;28;20626;-60
2023/10/04 17:49:48;;;;;;;8.95;2.95;;;;;;;14.61;57.71;100948.91;10467608;28;20141;-60
2023/10/04 17:54:51;;;;;;;4.85;2.00;;;;;;;14.54;58.03;100943.16;10466831;28;20227;-60
2023/10/04 17:59:53;;;;;;;5.90;2.40;;;;;;;14.39;58.28;100936.16;10453852;28;20143;-60
2023/10/04 18:04:56;;;;;;;6.25;2.28;;;;;;;14.24;58.63;100940.56;10449346;28;20055;-60
2023/10/04 18:09:58;;;;;;;5.47;2.33;;;;;;;14.10;58.93;100943.16;10460674;28;20469;-60
2023/10/04 18:15:01;;;;;;;7.10;2.08;;;;;;;13.98;59.34;100938.59;10457870;28;20049;-60
2023/10/04 18:20:07;;;;;;;4.90;1.92;;;;;;;13.84;59.52;100942.94;10462239;28;20071;-60
2023/10/04 18:25:10;;;;;;;6.45;2.50;;;;;;;13.67;59.97;100936.88;10461589;28;20419;-60
2023/10/04 18:30:14;;;;;;;9.15;3.17;;;;;;;13.56;60.16;100943.66;10459988;28;20097;-60
2023/10/04 18:35:17;;;;;;;5.32;2.33;;;;;;;13.40;60.55;100942.78;10461324;28;20072;-60
2023/10/04 18:40:19;;;;;;;5.15;1.90;;;;;;;13.38;60.83;100944.63;10461444;28;20195;-60
2023/10/04 18:45:22;;;;;;;7.22;2.28;;;;;;;13.35;60.89;100950.06;10456741;28;20492;-60
2023/10/04 18:50:24;;;;;;;8.80;3.17;;;;;;;13.23;61.22;100948.13;10470287;28;20408;-60
2023/10/04 18:55:28;;;;;;;6.63;2.28;;;;;;;13.14;61.47;100951.25;10453797;28;20044;-60
2023/10/04 19:00:30;;;;;;;4.10;1.98;;;;;;;13.05;61.61;100963.09;10477907;28;20139;-60
2023/10/04 19:05:33;;;;;;;6.22;2.47;;;;;;;12.98;61.96;100954.69;10457736;28;20129;-60
2023/10/04 19:10:35;;;;;;;7.22;3.22;;;;;;;12.87;62.06;100953.56;10474506;28;20646;-60
2023/10/04 19:15:37;;;;;;;9.38;2.30;;;;;;;12.80;62.06;100960.91;10451579;28;20084;-60
2023/10/04 19:20:39;;;;;;;7.93;2.80;;;;;;;12.68;62.46;100971.22;10483876;28;20044;-59
2023/10/04 19:25:46;;;;;;;6.78;2.35;;;;;;;12.60;62.62;100955.84;10472153;28;20105;-60
2023/10/04 19:30:49;;;;;;;6.85;2.40;;;;;;;12.50;62.64;100954.63;10483257;28;20159;-60
2023/10/04 19:35:52;;;;;;;10.20;2.97;;;;;;;12.41;62.82;100964.75;10463100;28;20044;-60
2023/10/04 19:40:54;;;;;;;6.80;2.38;;;;;;;12.38;62.90;100968.38;10474446;28;20048;-60
2023/10/04 19:45:56;;;;;;;5.55;2.72;;;;;;;12.32;63.04;100966.06;10462867;28;20937;-60
2023/10/04 19:50:58;;;;;;;4.68;1.95;;;;;;;12.28;63.13;100967.16;10478918;28;20048;-60
2023/10/04 19:56:01;;;;;;;8.07;2.60;;;;;;;12.31;63.23;100955.66;10476000;28;20059;-60
2023/10/04 20:01:03;;;;;;;6.40;2.25;;;;;;;12.26;63.20;100947.97;10472936;28;20511;-60
2023/10/04 20:06:09;;;;;;;5.45;2.20;;;;;;;12.19;63.28;100951.00;10465022;28;20045;-60
2023/10/04 20:11:12;;;;;;;6.68;2.50;;;;;;;12.13;63.26;100947.75;10469008;28;20052;-60
2023/10/04 20:16:14;;;;;;;5.80;2.53;;;;;;;12.07;63.40;100941.94;10466765;28;20421;-60
2023/10/04 20:21:17;;;;;;;5.70;2.15;;;;;;;12.03;63.57;100940.41;10460606;28;20412;-59
2023/10/04 20:26:19;;;;;;;5.80;1.95;;;;;;;11.96;63.72;100944.28;10472998;28;20074;-60
2023/10/04 20:31:24;;;;;;;6.32;2.40;;;;;;;11.89;64.16;100948.97;10485112;28;20045;-59
2023/10/04 20:36:27;;;;;;;7.38;1.98;;;;;;;11.96;64.08;100946.91;10468245;28;20053;-59
2023/10/04 20:41:29;;;;;;;7.15;2.63;;;;;;;11.94;63.71;100939.13;10448399;28;20735;-59
2023/10/04 20:46:31;;;;;;;6.20;2.22;;;;;;;11.89;63.87;100940.25;10451901;28;20503;-59
2023/10/04 20:51:33;;;;;;;5.82;1.90;;;;;;;11.81;64.04;100930.16;10467344;28;20037;-59
2023/10/04 20:56:35;;;;;;;5.60;2.30;;;;;;;11.85;63.86;100928.22;10473198;28;20076;-59
2023/10/04 21:01:38;;;;;;;7.45;2.42;;;;;;;11.91;63.76;100930.53;10455374;28;20555;-59
2023/10/04 21:06:41;;;;;;;5.15;1.80;;;;;;;11.78;63.88;100938.19;10472084;28;20079;-59
2023/10/04 21:11:44;;;;;;;4.82;1.80;;;;;;;11.73;64.01;100928.81;10461309;28;20399;-59
2023/10/04 21:16:47;;;;;;;5.07;2.05;;;;;;;11.76;63.94;100924.28;10465708;28;20954;-59
2023/10/04 21:21:50;;;;;;;9.98;2.20;;;;;;;11.86;63.75;100919.44;10469058;28;20572;-59
2023/10/04 21:26:57;;;;;;;5.25;1.95;;;;;;;11.70;63.92;100906.22;10451532;28;20059;-59
2023/10/04 21:31:59;;;;;;;7.13;1.95;;;;;;;11.67;64.09;100902.91;10463271;28;20052;-59
2023/10/04 21:37:35;;;;;;;4.35;1.88;;;;;;;11.59;63.99;100894.56;10453529;28;20044;-59
2023/10/04 21:42:58;;;;;;;4.63;1.73;;;;;;;11.57;63.97;100889.41;10462457;28;20048;-59
2023/10/04 21:48:02;;;;;;;6.30;2.00;;;;;;;11.45;64.20;100899.63;10453457;28;20530;-59
2023/10/04 21:53:05;;;;;;;4.22;1.58;;;;;;;11.42;64.30;100889.31;10471818;28;20900;-59
2023/10/04 21:58:09;;;;;;;5.47;2.50;;;;;;;11.35;64.42;100880.91;10468533;28;20041;-60
2023/10/04 22:03:11;;;;;;;4.75;1.90;;;;;;;11.37;64.31;100883.44;10448575;28;21014;-59
2023/10/04 22:08:15;;;;;;;4.78;1.85;;;;;;;11.37;64.56;100891.28;10470507;28;20261;-59
2023/10/04 22:13:17;;;;;;;7.43;2.00;;;;;;;11.38;64.54;100891.22;10467381;28;20050;-59
2023/10/04 22:18:19;;;;;;;5.63;1.67;;;;;;;11.37;64.44;100876.44;10473440;28;20036;-59
2023/10/04 22:23:22;;;;;;;5.63;2.10;;;;;;;11.40;64.47;100872.84;10468506;28;20059;-59
2023/10/04 22:28:25;;;;;;;7.80;2.38;;;;;;;11.41;64.32;100866.66;10452292;28;20079;-59
2023/10/04 22:33:30;;;;;;;7.60;2.25;;;;;;;11.40;64.48;100876.28;10470672;28;20043;-59
2023/10/04 22:38:33;;;;;;;7.15;2.30;;;;;;;11.44;64.20;100863.91;10454000;28;20201;-59
2023/10/04 22:43:35;;;;;;;7.38;2.65;;;;;;;11.39;64.51;100869.34;10465524;28;20439;-59
2023/10/04 22:48:37;;;;;;;6.38;2.33;;;;;;;11.45;64.36;100868.19;10472256;28;20386;-59
2023/10/04 22:53:40;;;;;;;6.20;1.75;;;;;;;11.47;64.22;100866.34;10465697;28;20066;-59
2023/10/04 22:58:42;;;;;;;6.93;2.10;;;;;;;11.49;64.16;100864.50;10474200;28;20147;-59
2023/10/04 23:03:45;;;;;;;5.03;2.00;;;;;;;11.43;64.35;100864.81;10450844;28;20048;-60
2023/10/04 23:08:48;;;;;;;5.22;2.35;;;;;;;11.55;64.11;100856.34;10473785;28;20143;-60
2023/10/04 23:13:50;;;;;;;5.13;2.17;;;;;;;11.47;64.15;100851.50;10467781;28;20044;-59
2023/10/04 23:18:53;;;;;;;8.65;2.25;;;;;;;11.42;64.13;100842.19;10464763;28;20048;-59